sensor_id;sensor_type;location;lat;lon;timestamp;temperature;humidity
26952;DHT22;14507;52.418;13.398;2023-03-14T00:02:25;12.30;99.90
26952;DHT22;14507;52.418;13.398;2023-03-14T00:04:54;12.20;99.90
26952;DHT22;14507;52.418;13.398;2023-03-14T00:07:21;12.20;99.90
26952;DHT22;14507;52.418;13.398;2023-03-14T00:09:46;12.20;99.90
26952;DHT22;14507;52.418;13.398;2023-03-14T00:12:12;12.20;99.90
26952;DHT22;14507;52.418;13.398;2023-03-14T00:14:39;12.10;99.90
26952;DHT22;14507;52.418;13.398;2023-03-14T00:17:07;12.10;99.90
26952;DHT22;14507;52.418;13.398;2023-03-14T00:19:33;12.10;99.90
26952;DHT22;14507;52.418;13.398;2023-03-14T00:21:59;12.10;99.90
26952;DHT22;14507;52.418;13.398;2023-03-14T00:24:24;12.00;99.90
26952;DHT22;14507;52.418;13.398;2023-03-14T00:26:50;12.00;99.90
26952;DHT22;14507;52.418;13.398;2023-03-14T00:29:15;12.00;99.90
26952;DHT22;14507;52.418;13.398;2023-03-14T00:31:41;12.00;99.90
26952;DHT22;14507;52.418;13.398;2023-03-14T00:34:07;11.90;99.90
26952;DHT22;14507;52.418;13.398;2023-03-14T00:36:32;11.90;99.90
26952;DHT22;14507;52.418;13.398;2023-03-14T00:38:58;11.90;99.90
26952;DHT22;14507;52.418;13.398;2023-03-14T00:41:23;11.80;99.90
26952;DHT22;14507;52.418;13.398;2023-03-14T00:43:50;11.80;99.90
26952;DHT22;14507;52.418;13.398;2023-03-14T00:46:16;11.80;99.90
26952;DHT22;14507;52.418;13.398;2023-03-14T00:48:41;11.70;99.90
26952;DHT22;14507;52.418;13.398;2023-03-14T00:51:08;11.70;99.90
26952;DHT22;14507;52.418;13.398;2023-03-14T00:53:38;11.70;99.90
26952;DHT22;14507;52.418;13.398;2023-03-14T00:56:05;11.70;99.90
26952;DHT22;14507;52.418;13.398;2023-03-14T00:58:31;11.60;99.90
26952;DHT22;14507;52.418;13.398;2023-03-14T01:00:57;11.60;99.90
26952;DHT22;14507;52.418;13.398;2023-03-14T01:03:23;11.60;99.90
26952;DHT22;14507;52.418;13.398;2023-03-14T01:05:49;11.60;99.90
26952;DHT22;14507;52.418;13.398;2023-03-14T01:08:15;11.50;99.90
26952;DHT22;14507;52.418;13.398;2023-03-14T01:10:41;11.50;99.90
26952;DHT22;14507;52.418;13.398;2023-03-14T01:13:08;11.50;99.90
26952;DHT22;14507;52.418;13.398;2023-03-14T01:15:34;11.50;99.90
26952;DHT22;14507;52.418;13.398;2023-03-14T01:18:00;11.50;99.90
26952;DHT22;14507;52.418;13.398;2023-03-14T01:20:26;11.50;99.90
26952;DHT22;14507;52.418;13.398;2023-03-14T01:22:51;11.50;99.90
26952;DHT22;14507;52.418;13.398;2023-03-14T01:25:17;11.50;99.90
26952;DHT22;14507;52.418;13.398;2023-03-14T01:27:43;11.50;99.90
26952;DHT22;14507;52.418;13.398;2023-03-14T01:30:11;11.50;99.90
26952;DHT22;14507;52.418;13.398;2023-03-14T01:32:37;11.50;99.90
26952;DHT22;14507;52.418;13.398;2023-03-14T01:35:04;11.50;99.90
26952;DHT22;14507;52.418;13.398;2023-03-14T01:37:29;11.50;99.90
26952;DHT22;14507;52.418;13.398;2023-03-14T01:39:55;11.50;99.90
26952;DHT22;14507;52.418;13.398;2023-03-14T01:42:20;11.60;99.90
26952;DHT22;14507;52.418;13.398;2023-03-14T01:47:18;11.60;99.90
26952;DHT22;14507;52.418;13.398;2023-03-14T01:49:46;11.60;99.90
26952;DHT22;14507;52.418;13.398;2023-03-14T01:54:47;11.50;99.90
26952;DHT22;14507;52.418;13.398;2023-03-14T01:57:25;11.60;99.90
26952;DHT22;14507;52.418;13.398;2023-03-14T02:02:45;11.60;99.90
26952;DHT22;14507;52.418;13.398;2023-03-14T02:05:15;11.60;99.90
26952;DHT22;14507;52.418;13.398;2023-03-14T02:07:46;11.50;99.90
26952;DHT22;14507;52.418;13.398;2023-03-14T02:10:14;11.50;99.90
26952;DHT22;14507;52.418;13.398;2023-03-14T02:12:40;11.50;99.90
26952;DHT22;14507;52.418;13.398;2023-03-14T02:15:06;11.50;99.90
26952;DHT22;14507;52.418;13.398;2023-03-14T02:17:32;11.50;99.90
26952;DHT22;14507;52.418;13.398;2023-03-14T02:22:40;11.40;99.90
26952;DHT22;14507;52.418;13.398;2023-03-14T02:25:29;11.40;99.90
26952;DHT22;14507;52.418;13.398;2023-03-14T02:27:57;11.40;99.90
26952;DHT22;14507;52.418;13.398;2023-03-14T02:30:26;11.40;99.90
26952;DHT22;14507;52.418;13.398;2023-03-14T02:32:55;11.40;99.90
26952;DHT22;14507;52.418;13.398;2023-03-14T02:35:24;11.40;99.90
26952;DHT22;14507;52.418;13.398;2023-03-14T02:38:00;11.40;99.90
26952;DHT22;14507;52.418;13.398;2023-03-14T02:40:29;11.40;99.90
26952;DHT22;14507;52.418;13.398;2023-03-14T02:42:54;11.40;99.90
26952;DHT22;14507;52.418;13.398;2023-03-14T02:47:56;11.40;99.90
26952;DHT22;14507;52.418;13.398;2023-03-14T02:50:26;11.40;99.90
26952;DHT22;14507;52.418;13.398;2023-03-14T02:52:53;11.40;99.90
26952;DHT22;14507;52.418;13.398;2023-03-14T02:55:22;11.40;99.90
26952;DHT22;14507;52.418;13.398;2023-03-14T02:57:48;11.40;99.90
26952;DHT22;14507;52.418;13.398;2023-03-14T03:00:14;11.40;99.90
26952;DHT22;14507;52.418;13.398;2023-03-14T03:02:40;11.40;99.90
26952;DHT22;14507;52.418;13.398;2023-03-14T03:05:06;11.40;99.90
26952;DHT22;14507;52.418;13.398;2023-03-14T03:07:31;11.40;99.90
26952;DHT22;14507;52.418;13.398;2023-03-14T03:09:57;11.40;99.90
26952;DHT22;14507;52.418;13.398;2023-03-14T03:12:23;11.30;99.90
26952;DHT22;14507;52.418;13.398;2023-03-14T03:14:48;11.30;99.90
26952;DHT22;14507;52.418;13.398;2023-03-14T03:17:14;11.30;99.90
26952;DHT22;14507;52.418;13.398;2023-03-14T03:19:40;11.30;99.90
26952;DHT22;14507;52.418;13.398;2023-03-14T03:22:06;11.20;99.90
26952;DHT22;14507;52.418;13.398;2023-03-14T03:24:32;11.20;99.90
26952;DHT22;14507;52.418;13.398;2023-03-14T03:26:57;11.20;99.90
26952;DHT22;14507;52.418;13.398;2023-03-14T03:29:23;11.20;99.90
26952;DHT22;14507;52.418;13.398;2023-03-14T03:31:49;11.20;99.90
26952;DHT22;14507;52.418;13.398;2023-03-14T03:34:15;11.20;99.90
26952;DHT22;14507;52.418;13.398;2023-03-14T03:36:41;11.20;99.90
26952;DHT22;14507;52.418;13.398;2023-03-14T03:39:07;11.20;99.90
26952;DHT22;14507;52.418;13.398;2023-03-14T03:41:33;11.20;99.90
26952;DHT22;14507;52.418;13.398;2023-03-14T03:43:58;11.20;99.90
26952;DHT22;14507;52.418;13.398;2023-03-14T03:46:24;11.10;99.90
26952;DHT22;14507;52.418;13.398;2023-03-14T03:48:57;11.10;99.90
26952;DHT22;14507;52.418;13.398;2023-03-14T03:51:24;11.10;99.90
26952;DHT22;14507;52.418;13.398;2023-03-14T03:53:50;11.10;99.90
26952;DHT22;14507;52.418;13.398;2023-03-14T03:56:16;11.10;99.90
26952;DHT22;14507;52.418;13.398;2023-03-14T03:58:42;11.10;99.90
26952;DHT22;14507;52.418;13.398;2023-03-14T04:01:08;11.10;99.90
26952;DHT22;14507;52.418;13.398;2023-03-14T04:03:35;11.00;99.90
26952;DHT22;14507;52.418;13.398;2023-03-14T04:06:06;11.00;99.90
26952;DHT22;14507;52.418;13.398;2023-03-14T04:08:32;11.10;99.90
26952;DHT22;14507;52.418;13.398;2023-03-14T04:10:59;11.00;99.90
26952;DHT22;14507;52.418;13.398;2023-03-14T04:13:26;11.00;99.90
26952;DHT22;14507;52.418;13.398;2023-03-14T04:15:53;11.00;99.90
26952;DHT22;14507;52.418;13.398;2023-03-14T04:18:20;11.00;99.90
26952;DHT22;14507;52.418;13.398;2023-03-14T04:20:46;11.00;99.90
26952;DHT22;14507;52.418;13.398;2023-03-14T04:23:15;11.00;99.90
26952;DHT22;14507;52.418;13.398;2023-03-14T04:25:41;11.00;99.90
26952;DHT22;14507;52.418;13.398;2023-03-14T04:28:06;11.00;99.90
26952;DHT22;14507;52.418;13.398;2023-03-14T04:30:32;11.00;99.90
26952;DHT22;14507;52.418;13.398;2023-03-14T04:32:58;11.00;99.90
26952;DHT22;14507;52.418;13.398;2023-03-14T04:35:23;11.00;99.90
26952;DHT22;14507;52.418;13.398;2023-03-14T04:37:49;11.00;99.90
26952;DHT22;14507;52.418;13.398;2023-03-14T04:40:15;11.00;99.90
26952;DHT22;14507;52.418;13.398;2023-03-14T04:42:41;10.90;99.90
26952;DHT22;14507;52.418;13.398;2023-03-14T04:45:07;10.90;99.90
26952;DHT22;14507;52.418;13.398;2023-03-14T04:47:33;10.90;99.90
26952;DHT22;14507;52.418;13.398;2023-03-14T04:49:59;10.90;99.90
26952;DHT22;14507;52.418;13.398;2023-03-14T04:52:24;10.90;99.90
26952;DHT22;14507;52.418;13.398;2023-03-14T04:54:50;10.90;99.90
26952;DHT22;14507;52.418;13.398;2023-03-14T04:57:16;10.90;99.90
26952;DHT22;14507;52.418;13.398;2023-03-14T04:59:41;10.90;99.90
26952;DHT22;14507;52.418;13.398;2023-03-14T05:02:07;10.80;99.90
26952;DHT22;14507;52.418;13.398;2023-03-14T05:04:33;10.90;99.90
26952;DHT22;14507;52.418;13.398;2023-03-14T05:06:59;10.90;99.90
26952;DHT22;14507;52.418;13.398;2023-03-14T05:09:25;10.90;99.90
26952;DHT22;14507;52.418;13.398;2023-03-14T05:11:51;10.90;99.90
26952;DHT22;14507;52.418;13.398;2023-03-14T05:14:17;10.90;99.90
26952;DHT22;14507;52.418;13.398;2023-03-14T05:16:42;10.90;99.90
26952;DHT22;14507;52.418;13.398;2023-03-14T05:19:08;10.90;99.90
26952;DHT22;14507;52.418;13.398;2023-03-14T05:21:35;10.90;99.90
26952;DHT22;14507;52.418;13.398;2023-03-14T05:24:00;10.90;99.90
26952;DHT22;14507;52.418;13.398;2023-03-14T05:26:26;10.90;99.90
26952;DHT22;14507;52.418;13.398;2023-03-14T05:28:52;10.80;99.90
26952;DHT22;14507;52.418;13.398;2023-03-14T05:31:17;10.80;99.90
26952;DHT22;14507;52.418;13.398;2023-03-14T05:33:43;10.80;99.90
26952;DHT22;14507;52.418;13.398;2023-03-14T05:36:09;10.80;99.90
26952;DHT22;14507;52.418;13.398;2023-03-14T05:38:34;10.90;99.90
26952;DHT22;14507;52.418;13.398;2023-03-14T05:41:00;10.90;99.90
26952;DHT22;14507;52.418;13.398;2023-03-14T05:43:25;10.90;99.90
26952;DHT22;14507;52.418;13.398;2023-03-14T05:45:51;10.90;99.90
26952;DHT22;14507;52.418;13.398;2023-03-14T05:48:17;10.90;99.90
26952;DHT22;14507;52.418;13.398;2023-03-14T05:50:43;10.90;99.90
26952;DHT22;14507;52.418;13.398;2023-03-14T05:53:09;10.90;99.90
26952;DHT22;14507;52.418;13.398;2023-03-14T05:55:35;10.90;99.90
26952;DHT22;14507;52.418;13.398;2023-03-14T05:58:00;10.90;99.90
26952;DHT22;14507;52.418;13.398;2023-03-14T06:00:26;10.90;99.90
26952;DHT22;14507;52.418;13.398;2023-03-14T06:02:52;11.00;99.90
26952;DHT22;14507;52.418;13.398;2023-03-14T06:05:17;11.00;99.90
26952;DHT22;14507;52.418;13.398;2023-03-14T06:07:43;11.00;99.90
26952;DHT22;14507;52.418;13.398;2023-03-14T06:10:09;11.00;99.90
26952;DHT22;14507;52.418;13.398;2023-03-14T06:12:35;11.10;99.90
26952;DHT22;14507;52.418;13.398;2023-03-14T06:15:00;11.10;99.90
26952;DHT22;14507;52.418;13.398;2023-03-14T06:17:26;11.10;99.90
26952;DHT22;14507;52.418;13.398;2023-03-14T06:19:52;11.10;99.90
26952;DHT22;14507;52.418;13.398;2023-03-14T06:22:17;11.20;99.90
26952;DHT22;14507;52.418;13.398;2023-03-14T06:24:43;11.20;99.90
26952;DHT22;14507;52.418;13.398;2023-03-14T06:27:08;11.20;99.90
26952;DHT22;14507;52.418;13.398;2023-03-14T06:29:34;11.30;99.90
26952;DHT22;14507;52.418;13.398;2023-03-14T06:31:59;11.30;99.90
26952;DHT22;14507;52.418;13.398;2023-03-14T06:34:25;11.30;99.90
26952;DHT22;14507;52.418;13.398;2023-03-14T06:36:51;11.40;99.90
26952;DHT22;14507;52.418;13.398;2023-03-14T06:39:16;11.40;99.90
26952;DHT22;14507;52.418;13.398;2023-03-14T06:41:42;11.40;99.90
26952;DHT22;14507;52.418;13.398;2023-03-14T06:44:07;11.40;99.90
26952;DHT22;14507;52.418;13.398;2023-03-14T06:46:33;11.50;99.90
26952;DHT22;14507;52.418;13.398;2023-03-14T06:48:59;11.60;99.90
26952;DHT22;14507;52.418;13.398;2023-03-14T06:51:24;11.60;99.90
26952;DHT22;14507;52.418;13.398;2023-03-14T06:53:50;11.60;99.90
26952;DHT22;14507;52.418;13.398;2023-03-14T06:56:15;11.70;99.90
26952;DHT22;14507;52.418;13.398;2023-03-14T06:58:41;11.70;99.90
26952;DHT22;14507;52.418;13.398;2023-03-14T07:01:18;11.90;99.90
26952;DHT22;14507;52.418;13.398;2023-03-14T07:03:45;12.00;99.90
26952;DHT22;14507;52.418;13.398;2023-03-14T07:06:10;12.10;99.90
26952;DHT22;14507;52.418;13.398;2023-03-14T07:08:36;12.20;99.90
26952;DHT22;14507;52.418;13.398;2023-03-14T07:11:03;12.20;99.90
26952;DHT22;14507;52.418;13.398;2023-03-14T07:13:29;12.20;99.90
26952;DHT22;14507;52.418;13.398;2023-03-14T07:15:54;12.20;99.90
26952;DHT22;14507;52.418;13.398;2023-03-14T07:18:20;12.30;99.90
26952;DHT22;14507;52.418;13.398;2023-03-14T07:20:46;12.30;99.90
26952;DHT22;14507;52.418;13.398;2023-03-14T07:23:11;12.40;99.90
26952;DHT22;14507;52.418;13.398;2023-03-14T07:25:37;12.30;99.90
26952;DHT22;14507;52.418;13.398;2023-03-14T07:28:03;12.40;99.90
26952;DHT22;14507;52.418;13.398;2023-03-14T07:30:28;12.70;99.90
26952;DHT22;14507;52.418;13.398;2023-03-14T07:32:54;13.00;99.90
26952;DHT22;14507;52.418;13.398;2023-03-14T07:35:19;13.50;99.90
26952;DHT22;14507;52.418;13.398;2023-03-14T07:37:45;13.80;99.90
26952;DHT22;14507;52.418;13.398;2023-03-14T07:40:11;14.00;99.90
26952;DHT22;14507;52.418;13.398;2023-03-14T07:42:40;14.00;99.90
26952;DHT22;14507;52.418;13.398;2023-03-14T07:45:07;14.00;99.90
26952;DHT22;14507;52.418;13.398;2023-03-14T07:47:33;13.90;99.90
26952;DHT22;14507;52.418;13.398;2023-03-14T07:49:59;13.70;99.90
26952;DHT22;14507;52.418;13.398;2023-03-14T07:52:24;13.60;99.90
26952;DHT22;14507;52.418;13.398;2023-03-14T07:54:50;13.50;99.90
26952;DHT22;14507;52.418;13.398;2023-03-14T07:57:15;13.40;99.90
26952;DHT22;14507;52.418;13.398;2023-03-14T07:59:42;13.40;99.90
26952;DHT22;14507;52.418;13.398;2023-03-14T08:02:11;13.50;99.90
26952;DHT22;14507;52.418;13.398;2023-03-14T08:04:38;13.80;99.90
26952;DHT22;14507;52.418;13.398;2023-03-14T08:07:04;14.00;99.90
26952;DHT22;14507;52.418;13.398;2023-03-14T08:09:29;13.90;99.90
26952;DHT22;14507;52.418;13.398;2023-03-14T08:11:55;13.70;99.90
26952;DHT22;14507;52.418;13.398;2023-03-14T08:14:21;13.60;99.90
26952;DHT22;14507;52.418;13.398;2023-03-14T08:16:49;13.50;99.90
26952;DHT22;14507;52.418;13.398;2023-03-14T08:19:15;13.50;99.90
26952;DHT22;14507;52.418;13.398;2023-03-14T08:21:40;13.40;99.90
26952;DHT22;14507;52.418;13.398;2023-03-14T08:24:06;13.30;99.90
26952;DHT22;14507;52.418;13.398;2023-03-14T08:26:32;13.40;99.90
26952;DHT22;14507;52.418;13.398;2023-03-14T08:28:57;13.30;99.90
26952;DHT22;14507;52.418;13.398;2023-03-14T08:31:23;13.20;99.90
26952;DHT22;14507;52.418;13.398;2023-03-14T08:33:49;13.10;99.90
26952;DHT22;14507;52.418;13.398;2023-03-14T08:36:17;13.00;99.90
26952;DHT22;14507;52.418;13.398;2023-03-14T08:38:43;13.00;99.90
26952;DHT22;14507;52.418;13.398;2023-03-14T08:41:09;12.90;99.90
26952;DHT22;14507;52.418;13.398;2023-03-14T08:43:35;12.90;99.90
26952;DHT22;14507;52.418;13.398;2023-03-14T08:46:02;12.80;99.90
26952;DHT22;14507;52.418;13.398;2023-03-14T08:48:28;12.80;99.90
26952;DHT22;14507;52.418;13.398;2023-03-14T08:50:56;12.80;99.90
26952;DHT22;14507;52.418;13.398;2023-03-14T08:53:22;12.80;99.90
26952;DHT22;14507;52.418;13.398;2023-03-14T08:55:52;12.80;99.90
26952;DHT22;14507;52.418;13.398;2023-03-14T08:58:19;12.80;99.90
26952;DHT22;14507;52.418;13.398;2023-03-14T09:00:44;12.80;99.90
26952;DHT22;14507;52.418;13.398;2023-03-14T09:03:10;12.80;99.90
26952;DHT22;14507;52.418;13.398;2023-03-14T09:05:35;12.70;99.90
26952;DHT22;14507;52.418;13.398;2023-03-14T09:08:01;12.80;99.90
26952;DHT22;14507;52.418;13.398;2023-03-14T09:10:27;12.80;99.90
26952;DHT22;14507;52.418;13.398;2023-03-14T09:12:52;12.90;99.90
26952;DHT22;14507;52.418;13.398;2023-03-14T09:15:18;13.10;99.90
26952;DHT22;14507;52.418;13.398;2023-03-14T09:17:44;13.30;99.90
26952;DHT22;14507;52.418;13.398;2023-03-14T09:20:10;13.80;99.90
26952;DHT22;14507;52.418;13.398;2023-03-14T09:22:36;15.60;99.90
26952;DHT22;14507;52.418;13.398;2023-03-14T09:25:03;17.50;98.30
26952;DHT22;14507;52.418;13.398;2023-03-14T09:27:29;19.30;94.80
26952;DHT22;14507;52.418;13.398;2023-03-14T09:29:54;20.60;91.90
26952;DHT22;14507;52.418;13.398;2023-03-14T09:32:20;21.70;88.40
26952;DHT22;14507;52.418;13.398;2023-03-14T09:34:46;22.50;85.00
26952;DHT22;14507;52.418;13.398;2023-03-14T09:37:11;23.00;80.80
26952;DHT22;14507;52.418;13.398;2023-03-14T09:39:37;23.90;76.10
26952;DHT22;14507;52.418;13.398;2023-03-14T09:42:05;24.10;73.10
26952;DHT22;14507;52.418;13.398;2023-03-14T09:44:36;24.20;73.70
26952;DHT22;14507;52.418;13.398;2023-03-14T09:47:06;23.60;73.30
26952;DHT22;14507;52.418;13.398;2023-03-14T09:49:35;22.20;75.60
26952;DHT22;14507;52.418;13.398;2023-03-14T09:52:07;20.60;81.40
26952;DHT22;14507;52.418;13.398;2023-03-14T09:54:56;19.40;85.20
26952;DHT22;14507;52.418;13.398;2023-03-14T09:57:24;18.50;90.40
26952;DHT22;14507;52.418;13.398;2023-03-14T09:59:56;17.60;91.90
26952;DHT22;14507;52.418;13.398;2023-03-14T10:02:26;17.00;93.80
26952;DHT22;14507;52.418;13.398;2023-03-14T10:04:54;16.40;94.90
26952;DHT22;14507;52.418;13.398;2023-03-14T10:07:28;16.00;95.60
26952;DHT22;14507;52.418;13.398;2023-03-14T10:09:55;15.60;96.90
26952;DHT22;14507;52.418;13.398;2023-03-14T10:12:31;15.30;97.60
26952;DHT22;14507;52.418;13.398;2023-03-14T10:15:05;15.10;98.10
26952;DHT22;14507;52.418;13.398;2023-03-14T10:17:42;14.80;98.80
26952;DHT22;14507;52.418;13.398;2023-03-14T10:20:27;14.70;99.70
26952;DHT22;14507;52.418;13.398;2023-03-14T10:22:57;14.60;99.90
26952;DHT22;14507;52.418;13.398;2023-03-14T10:25:29;14.50;99.90
26952;DHT22;14507;52.418;13.398;2023-03-14T10:27:56;14.50;99.90
26952;DHT22;14507;52.418;13.398;2023-03-14T10:30:40;14.40;99.90
26952;DHT22;14507;52.418;13.398;2023-03-14T10:33:21;14.30;99.90
26952;DHT22;14507;52.418;13.398;2023-03-14T10:38:35;14.20;99.90
26952;DHT22;14507;52.418;13.398;2023-03-14T10:41:02;14.10;99.90
26952;DHT22;14507;52.418;13.398;2023-03-14T10:43:39;14.10;99.90
26952;DHT22;14507;52.418;13.398;2023-03-14T10:46:09;14.00;99.90
26952;DHT22;14507;52.418;13.398;2023-03-14T10:48:37;14.00;99.90
26952;DHT22;14507;52.418;13.398;2023-03-14T10:53:45;13.90;99.90
26952;DHT22;14507;52.418;13.398;2023-03-14T10:56:20;13.90;99.90
26952;DHT22;14507;52.418;13.398;2023-03-14T10:58:51;13.90;99.90
26952;DHT22;14507;52.418;13.398;2023-03-14T11:09:48;13.90;99.90
26952;DHT22;14507;52.418;13.398;2023-03-14T11:12:28;13.90;99.90
26952;DHT22;14507;52.418;13.398;2023-03-14T11:15:02;14.00;99.90
26952;DHT22;14507;52.418;13.398;2023-03-14T11:17:38;14.00;99.90
26952;DHT22;14507;52.418;13.398;2023-03-14T11:28:18;13.90;99.90
26952;DHT22;14507;52.418;13.398;2023-03-14T11:30:55;13.90;99.90
26952;DHT22;14507;52.418;13.398;2023-03-14T11:36:07;13.90;99.90
26952;DHT22;14507;52.418;13.398;2023-03-14T11:41:36;13.90;99.90
26952;DHT22;14507;52.418;13.398;2023-03-14T11:44:04;13.90;99.90
26952;DHT22;14507;52.418;13.398;2023-03-14T11:46:42;13.80;99.90
26952;DHT22;14507;52.418;13.398;2023-03-14T11:49:24;13.90;99.90
26952;DHT22;14507;52.418;13.398;2023-03-14T11:51:56;13.90;99.90
26952;DHT22;14507;52.418;13.398;2023-03-14T11:56:55;13.80;99.90
26952;DHT22;14507;52.418;13.398;2023-03-14T11:59:45;13.70;99.90
26952;DHT22;14507;52.418;13.398;2023-03-14T12:10:37;13.60;99.90
26952;DHT22;14507;52.418;13.398;2023-03-14T12:13:06;13.60;99.90
26952;DHT22;14507;52.418;13.398;2023-03-14T12:15:32;13.60;99.90
26952;DHT22;14507;52.418;13.398;2023-03-14T12:18:02;13.60;99.90
26952;DHT22;14507;52.418;13.398;2023-03-14T12:20:28;13.70;99.90
26952;DHT22;14507;52.418;13.398;2023-03-14T12:22:56;13.70;99.90
26952;DHT22;14507;52.418;13.398;2023-03-14T12:25:28;13.80;99.90
26952;DHT22;14507;52.418;13.398;2023-03-14T12:38:23;13.80;99.90
26952;DHT22;14507;52.418;13.398;2023-03-14T12:43:31;13.80;99.90
26952;DHT22;14507;52.418;13.398;2023-03-14T12:48:44;13.90;99.90
26952;DHT22;14507;52.418;13.398;2023-03-14T12:51:16;13.90;99.90
26952;DHT22;14507;52.418;13.398;2023-03-14T12:54:00;14.10;99.90
26952;DHT22;14507;52.418;13.398;2023-03-14T12:56:54;14.10;99.90
26952;DHT22;14507;52.418;13.398;2023-03-14T13:00:17;14.20;99.90
26952;DHT22;14507;52.418;13.398;2023-03-14T13:02:43;14.20;99.90
26952;DHT22;14507;52.418;13.398;2023-03-14T13:05:14;14.20;99.90
26952;DHT22;14507;52.418;13.398;2023-03-14T13:10:22;14.10;99.90
26952;DHT22;14507;52.418;13.398;2023-03-14T13:15:29;14.00;99.90
26952;DHT22;14507;52.418;13.398;2023-03-14T13:18:12;13.90;99.90
26952;DHT22;14507;52.418;13.398;2023-03-14T13:20:54;13.90;99.90
26952;DHT22;14507;52.418;13.398;2023-03-14T13:23:27;13.90;99.90
26952;DHT22;14507;52.418;13.398;2023-03-14T13:25:54;14.00;99.90
26952;DHT22;14507;52.418;13.398;2023-03-14T13:28:19;14.00;99.90
26952;DHT22;14507;52.418;13.398;2023-03-14T13:30:47;14.10;99.90
26952;DHT22;14507;52.418;13.398;2023-03-14T13:33:21;14.20;99.90
26952;DHT22;14507;52.418;13.398;2023-03-14T13:35:56;14.30;99.90
26952;DHT22;14507;52.418;13.398;2023-03-14T13:38:27;14.30;99.90
26952;DHT22;14507;52.418;13.398;2023-03-14T13:40:59;14.40;99.90
26952;DHT22;14507;52.418;13.398;2023-03-14T13:43:34;14.50;99.90
26952;DHT22;14507;52.418;13.398;2023-03-14T13:46:13;14.40;99.90
26952;DHT22;14507;52.418;13.398;2023-03-14T13:48:52;14.30;99.90
26952;DHT22;14507;52.418;13.398;2023-03-14T13:51:21;14.20;99.90
26952;DHT22;14507;52.418;13.398;2023-03-14T13:53:49;14.20;99.90
26952;DHT22;14507;52.418;13.398;2023-03-14T13:56:17;14.10;99.90
26952;DHT22;14507;52.418;13.398;2023-03-14T13:58:43;14.00;99.90
26952;DHT22;14507;52.418;13.398;2023-03-14T14:01:25;14.00;99.90
26952;DHT22;14507;52.418;13.398;2023-03-14T14:03:54;14.00;99.90
26952;DHT22;14507;52.418;13.398;2023-03-14T14:06:38;14.10;99.90
26952;DHT22;14507;52.418;13.398;2023-03-14T14:09:12;14.20;99.90
26952;DHT22;14507;52.418;13.398;2023-03-14T14:11:55;14.30;99.90
26952;DHT22;14507;52.418;13.398;2023-03-14T14:14:43;14.40;99.90
26952;DHT22;14507;52.418;13.398;2023-03-14T14:17:13;14.50;99.90
26952;DHT22;14507;52.418;13.398;2023-03-14T14:19:41;14.40;99.90
26952;DHT22;14507;52.418;13.398;2023-03-14T14:22:11;14.50;99.90
26952;DHT22;14507;52.418;13.398;2023-03-14T14:24:37;14.50;99.90
26952;DHT22;14507;52.418;13.398;2023-03-14T14:27:18;14.50;99.90
26952;DHT22;14507;52.418;13.398;2023-03-14T14:29:57;14.40;99.90
26952;DHT22;14507;52.418;13.398;2023-03-14T14:32:23;14.40;99.90
26952;DHT22;14507;52.418;13.398;2023-03-14T14:34:56;14.40;99.90
26952;DHT22;14507;52.418;13.398;2023-03-14T14:37:25;14.40;99.90
26952;DHT22;14507;52.418;13.398;2023-03-14T14:39:53;14.40;99.90
26952;DHT22;14507;52.418;13.398;2023-03-14T14:42:20;14.40;99.90
26952;DHT22;14507;52.418;13.398;2023-03-14T14:44:51;14.40;99.90
26952;DHT22;14507;52.418;13.398;2023-03-14T14:47:23;14.50;99.90
26952;DHT22;14507;52.418;13.398;2023-03-14T14:49:51;14.40;99.90
26952;DHT22;14507;52.418;13.398;2023-03-14T14:52:33;14.40;99.90
26952;DHT22;14507;52.418;13.398;2023-03-14T14:55:00;14.40;99.90
26952;DHT22;14507;52.418;13.398;2023-03-14T14:57:37;14.30;99.90
26952;DHT22;14507;52.418;13.398;2023-03-14T15:00:19;14.10;99.90
26952;DHT22;14507;52.418;13.398;2023-03-14T15:02:47;14.10;99.90
26952;DHT22;14507;52.418;13.398;2023-03-14T15:07:39;13.90;99.90
26952;DHT22;14507;52.418;13.398;2023-03-14T15:10:05;13.90;99.90
26952;DHT22;14507;52.418;13.398;2023-03-14T15:12:31;13.90;99.90
26952;DHT22;14507;52.418;13.398;2023-03-14T15:14:57;13.80;99.90
26952;DHT22;14507;52.418;13.398;2023-03-14T15:17:23;13.70;99.90
26952;DHT22;14507;52.418;13.398;2023-03-14T15:19:49;13.70;99.90
26952;DHT22;14507;52.418;13.398;2023-03-14T15:22:15;13.60;99.90
26952;DHT22;14507;52.418;13.398;2023-03-14T15:24:41;13.60;99.90
26952;DHT22;14507;52.418;13.398;2023-03-14T15:27:13;13.30;99.90
26952;DHT22;14507;52.418;13.398;2023-03-14T15:29:40;12.90;99.90
26952;DHT22;14507;52.418;13.398;2023-03-14T15:32:05;12.50;99.90
26952;DHT22;14507;52.418;13.398;2023-03-14T15:34:32;12.10;99.90
26952;DHT22;14507;52.418;13.398;2023-03-14T15:36:57;11.70;99.90
26952;DHT22;14507;52.418;13.398;2023-03-14T15:39:23;11.30;99.90
26952;DHT22;14507;52.418;13.398;2023-03-14T15:41:49;10.90;99.90
26952;DHT22;14507;52.418;13.398;2023-03-14T15:44:14;10.60;99.90
26952;DHT22;14507;52.418;13.398;2023-03-14T15:46:40;10.30;99.90
26952;DHT22;14507;52.418;13.398;2023-03-14T15:49:05;9.90;99.90
26952;DHT22;14507;52.418;13.398;2023-03-14T15:51:31;9.70;99.90
26952;DHT22;14507;52.418;13.398;2023-03-14T15:53:57;9.40;99.90
26952;DHT22;14507;52.418;13.398;2023-03-14T15:56:23;9.20;99.90
26952;DHT22;14507;52.418;13.398;2023-03-14T15:58:50;8.90;99.90
26952;DHT22;14507;52.418;13.398;2023-03-14T16:01:16;8.60;99.90
26952;DHT22;14507;52.418;13.398;2023-03-14T16:03:45;8.40;99.90
26952;DHT22;14507;52.418;13.398;2023-03-14T16:06:11;8.20;99.90
26952;DHT22;14507;52.418;13.398;2023-03-14T16:08:37;8.00;99.90
26952;DHT22;14507;52.418;13.398;2023-03-14T16:11:03;7.80;99.90
26952;DHT22;14507;52.418;13.398;2023-03-14T16:13:29;7.50;99.90
26952;DHT22;14507;52.418;13.398;2023-03-14T16:15:58;7.20;99.90
26952;DHT22;14507;52.418;13.398;2023-03-14T16:18:27;7.00;99.90
26952;DHT22;14507;52.418;13.398;2023-03-14T16:20:55;6.70;99.90
26952;DHT22;14507;52.418;13.398;2023-03-14T16:23:21;6.40;99.90
26952;DHT22;14507;52.418;13.398;2023-03-14T16:25:46;6.20;99.90
26952;DHT22;14507;52.418;13.398;2023-03-14T16:28:12;6.00;99.90
26952;DHT22;14507;52.418;13.398;2023-03-14T16:30:38;5.80;99.90
26952;DHT22;14507;52.418;13.398;2023-03-14T16:33:03;5.60;99.90
26952;DHT22;14507;52.418;13.398;2023-03-14T16:35:36;5.50;99.90
26952;DHT22;14507;52.418;13.398;2023-03-14T16:38:03;5.50;99.90
26952;DHT22;14507;52.418;13.398;2023-03-14T16:40:29;5.30;99.90